Winning Drive — WDG4948 — position and weather

sailwx.info

Track history (hours):
 
Tides and Currents Weather Stations Pressure Air Temp Water Temp Dewpoint Dewpoint Depression Visibility Wind Speed Wind Dir Waves Ship Positions

Winning Drive

Owner: Winning Way LLC, Fort Lauderdale, FL. More information available from US FCC via Universal Licensing System and Coast Guard Vessel Documentation Center.

Last reported at 2017-Jun-22 13:03 UTC. Time now 2017-Jun-22 18:38 UTC.
Position N 38°58' W 076°29'.

Length 40 m; draft 2.7 m.

Type: Pleasure craft. MMSI: 367541760.

Date/timePositionNaut miles runAvg speedWind from/ knotsBaromVisibWave heightAir tempDewpointWater temp
2017-Jun-22 13:03N 38°58' W 076°29'0 0.0
2017-Jun-22 12:54N 38°58' W 076°29'0 0.0
2017-Jun-22 12:21N 38°58' W 076°29'0 0.0
2017-Jun-22 11:27N 38°58' W 076°29'0 0.0
2017-Jun-22 10:48N 38°58' W 076°29'0 0.0
2017-Jun-22 10:21N 38°58' W 076°29'0 0.0
2017-Jun-22 10:00N 38°58' W 076°29'0 0.0
2017-Jun-22 01:42N 38°58' W 076°29'0 0.0
2017-Jun-22 01:30N 38°58' W 076°29'0 0.0
2017-Jun-22 01:00N 38°58' W 076°29'0 0.0
2017-Jun-20 10:35N 38°58' W 076°29'0 0.0
2017-Jun-20 10:29N 38°58' W 076°29'0 0.0
2017-Jun-20 09:59N 38°58' W 076°29'0 0.0
2017-Jun-20 09:06N 38°58' W 076°29'1 0.0
2017-Jun-19 03:09N 38°59' W 076°29'1 7.9
2017-Jun-19 03:00N 38°60' W 076°29'511.1
2017-Jun-19 02:31N 39°04' W 076°34'1 2.8
2017-Jun-19 02:00N 39°05' W 076°36'0 0.0
2017-Jun-19 01:28N 39°05' W 076°36'0 0.0
2017-Jun-19 01:00N 39°05' W 076°36'0 0.0
2017-Jun-19 00:30N 39°05' W 076°36'0 0.0
2017-Jun-19 00:00N 39°05' W 076°36'0 0.7
2017-Jun-18 23:29N 39°04' W 076°35'3 6.4
2017-Jun-18 23:00N 39°02' W 076°32'5 9.3
2017-Jun-18 22:30N 38°59' W 076°28'0 0.6
2017-Jun-18 22:00N 38°59' W 076°28'4 8.9
2017-Jun-18 21:30N 39°02' W 076°32'2 3.8
2017-Jun-18 21:00N 39°04' W 076°34'2 2.3
2017-Jun-18 20:16N 39°05' W 076°36'0 0.0
2017-Jun-18 20:00N 39°05' W 076°36'0 0.0
2017-Jun-18 19:21N 39°05' W 076°36'0 0.0
2017-Jun-18 18:50N 39°05' W 076°36'0 0.0
2017-Jun-18 18:22N 39°05' W 076°36'1 1.6
2017-Jun-18 18:00N 39°04' W 076°35'5 9.7
2017-Jun-18 17:30N 39°01' W 076°31'3 0.1
2017-Jun-17 05:46N 38°58' W 076°29'0 0.0
2017-Jun-16 11:58N 38°58' W 076°29'0 0.0
2017-Jun-16 11:28N 38°58' W 076°29'0 0.0
2017-Jun-15 11:22N 38°58' W 076°29'0 0.0
2017-Jun-15 10:46N 38°58' W 076°29'0 0.0
2017-Jun-15 10:22N 38°58' W 076°29'0 0.0
2017-Jun-15 09:52N 38°58' W 076°29'0 0.0
2017-Jun-15 08:46N 38°58' W 076°29'0 0.0
2017-Jun-15 08:22N 38°58' W 076°29'0 0.0
2017-Jun-15 07:55N 38°58' W 076°29'0 0.0
2017-Jun-15 07:22N 38°58' W 076°29'0 0.0
2017-Jun-15 06:49N 38°58' W 076°29'0 0.0
2017-Jun-15 06:28N 38°58' W 076°29'0 0.0
2017-Jun-15 04:22N 38°58' W 076°29'0 0.0
2017-Jun-13 12:58N 38°58' W 076°29'0 0.0
2017-Jun-13 12:28N 38°58' W 076°29'0 0.0
2017-Jun-13 11:46N 38°58' W 076°29'0 0.0
2017-Jun-13 11:28N 38°58' W 076°29'0 0.0
2017-Jun-13 10:55N 38°58' W 076°29'0 0.0
2017-Jun-13 10:22N 38°58' W 076°29'0 0.0
2017-Jun-13 08:25N 38°58' W 076°29'0 0.0
2017-Jun-13 06:58N 38°58' W 076°29'0 0.0
2017-Jun-13 06:25N 38°58' W 076°29'  
Track history (hours):
 
Tides and Currents Weather Stations Pressure Air Temp Water Temp Dewpoint Dewpoint Depression Visibility Wind Speed Wind Dir Waves Ship Positions

Winning Drive

Owner: Winning Way LLC, Fort Lauderdale, FL. More information available from US FCC via Universal Licensing System and Coast Guard Vessel Documentation Center.

Last reported at 2017-Jun-22 13:03 UTC. Time now 2017-Jun-22 18:38 UTC.
Position N 38°58' W 076°29'.

Length 40 m; draft 2.7 m.

Type: Pleasure craft. MMSI: 367541760.

Date/timePositionNaut miles runAvg speedWind from/ knotsBaromVisibWave heightAir tempDewpointWater temp
2017-Jun-22 13:03N 38°58' W 076°29'0 0.0
2017-Jun-22 12:54N 38°58' W 076°29'0 0.0
2017-Jun-22 12:21N 38°58' W 076°29'0 0.0
2017-Jun-22 11:27N 38°58' W 076°29'0 0.0
2017-Jun-22 10:48N 38°58' W 076°29'0 0.0
2017-Jun-22 10:21N 38°58' W 076°29'0 0.0
2017-Jun-22 10:00N 38°58' W 076°29'0 0.0
2017-Jun-22 01:42N 38°58' W 076°29'0 0.0
2017-Jun-22 01:30N 38°58' W 076°29'0 0.0
2017-Jun-22 01:00N 38°58' W 076°29'0 0.0
2017-Jun-20 10:35N 38°58' W 076°29'0 0.0
2017-Jun-20 10:29N 38°58' W 076°29'0 0.0
2017-Jun-20 09:59N 38°58' W 076°29'0 0.0
2017-Jun-20 09:06N 38°58' W 076°29'1 0.0
2017-Jun-19 03:09N 38°59' W 076°29'1 7.9
2017-Jun-19 03:00N 38°60' W 076°29'511.1
2017-Jun-19 02:31N 39°04' W 076°34'1 2.8
2017-Jun-19 02:00N 39°05' W 076°36'0 0.0
2017-Jun-19 01:28N 39°05' W 076°36'0 0.0
2017-Jun-19 01:00N 39°05' W 076°36'0 0.0
2017-Jun-19 00:30N 39°05' W 076°36'0 0.0
2017-Jun-19 00:00N 39°05' W 076°36'0 0.7
2017-Jun-18 23:29N 39°04' W 076°35'3 6.4
2017-Jun-18 23:00N 39°02' W 076°32'5 9.3
2017-Jun-18 22:30N 38°59' W 076°28'0 0.6
2017-Jun-18 22:00N 38°59' W 076°28'4 8.9
2017-Jun-18 21:30N 39°02' W 076°32'2 3.8
2017-Jun-18 21:00N 39°04' W 076°34'2 2.3
2017-Jun-18 20:16N 39°05' W 076°36'0 0.0
2017-Jun-18 20:00N 39°05' W 076°36'0 0.0
2017-Jun-18 19:21N 39°05' W 076°36'0 0.0
2017-Jun-18 18:50N 39°05' W 076°36'0 0.0
2017-Jun-18 18:22N 39°05' W 076°36'1 1.6
2017-Jun-18 18:00N 39°04' W 076°35'5 9.7
2017-Jun-18 17:30N 39°01' W 076°31'3 0.1
2017-Jun-17 05:46N 38°58' W 076°29'0 0.0
2017-Jun-16 11:58N 38°58' W 076°29'0 0.0
2017-Jun-16 11:28N 38°58' W 076°29'0 0.0
2017-Jun-15 11:22N 38°58' W 076°29'0 0.0
2017-Jun-15 10:46N 38°58' W 076°29'0 0.0
2017-Jun-15 10:22N 38°58' W 076°29'0 0.0
2017-Jun-15 09:52N 38°58' W 076°29'0 0.0
2017-Jun-15 08:46N 38°58' W 076°29'0 0.0
2017-Jun-15 08:22N 38°58' W 076°29'0 0.0
2017-Jun-15 07:55N 38°58' W 076°29'0 0.0
2017-Jun-15 07:22N 38°58' W 076°29'0 0.0
2017-Jun-15 06:49N 38°58' W 076°29'0 0.0
2017-Jun-15 06:28N 38°58' W 076°29'0 0.0
2017-Jun-15 04:22N 38°58' W 076°29'0 0.0
2017-Jun-13 12:58N 38°58' W 076°29'0 0.0
2017-Jun-13 12:28N 38°58' W 076°29'0 0.0
2017-Jun-13 11:46N 38°58' W 076°29'0 0.0
2017-Jun-13 11:28N 38°58' W 076°29'0 0.0
2017-Jun-13 10:55N 38°58' W 076°29'0 0.0
2017-Jun-13 10:22N 38°58' W 076°29'0 0.0
2017-Jun-13 08:25N 38°58' W 076°29'0 0.0
2017-Jun-13 06:58N 38°58' W 076°29'0 0.0
2017-Jun-13 06:25N 38°58' W 076°29'  

Dump ship's entire track history